Time;durP1;ratioP1;P1;durP2;ratioP2;P2;SDS_P1;SDS_P2;PMS_P1;PMS_P2;Temp;Humidity;BMP_temperature;BMP_pressure;BME280_temperature;BME280_humidity;BME280_pressure;Samples;Min_cycle;Max_cycle;Signal;HPM_P1;HPM_P2
2023/08/29 00:01:36;;;;;;;5.67;3.33;;;19.10;99.10;;;;;;5014053;28;20949;-43
2023/08/29 00:04:05;;;;;;;4.87;2.83;;;19.20;99.10;;;;;;5013545;28;20812;-43
2023/08/29 00:06:31;;;;;;;3.80;2.90;;;19.20;99.20;;;;;;5014221;28;20473;-45
2023/08/29 00:08:58;;;;;;;4.93;2.93;;;19.10;99.10;;;;;;5020106;28;20447;-44
2023/08/29 00:11:24;;;;;;;5.43;2.70;;;19.10;99.10;;;;;;5021551;28;20949;-45
2023/08/29 00:13:52;;;;;;;5.50;3.90;;;19.10;99.20;;;;;;5014404;28;20463;-43
2023/08/29 00:16:19;;;;;;;5.20;4.23;;;19.10;99.40;;;;;;5014406;28;20508;-43
2023/08/29 00:18:45;;;;;;;4.80;3.80;;;19.00;99.60;;;;;;5013016;28;20455;-43
2023/08/29 00:21:13;;;;;;;5.87;4.37;;;19.00;99.90;;;;;;5013728;28;20408;-41
2023/08/29 00:23:40;;;;;;;6.20;4.60;;;18.90;99.90;;;;;;5013367;28;20522;-42
2023/08/29 00:26:06;;;;;;;16.20;8.70;;;18.90;99.90;;;;;;5013654;28;20480;-42
2023/08/29 00:28:33;;;;;;;5.63;5.07;;;18.80;99.90;;;;;;5013010;28;20476;-44
2023/08/29 00:31:00;;;;;;;5.10;4.30;;;18.80;99.90;;;;;;5012299;28;20474;-41
2023/08/29 00:33:26;;;;;;;6.90;4.50;;;18.80;99.90;;;;;;5013822;28;20448;-42
2023/08/29 00:35:53;;;;;;;5.97;4.63;;;18.90;99.90;;;;;;5016112;28;20447;-42
2023/08/29 00:38:21;;;;;;;8.00;5.13;;;18.80;99.90;;;;;;5016618;28;20438;-43
2023/08/29 00:40:47;;;;;;;5.00;4.57;;;18.80;99.90;;;;;;5017090;28;20424;-43
2023/08/29 00:43:14;;;;;;;6.67;4.00;;;18.80;99.90;;;;;;5015414;28;20450;-42
2023/08/29 00:45:42;;;;;;;7.37;4.70;;;18.80;99.90;;;;;;5016214;28;20455;-43
2023/08/29 00:48:09;;;;;;;5.87;4.60;;;18.80;99.90;;;;;;5017206;28;20483;-43
2023/08/29 00:50:36;;;;;;;5.20;4.27;;;18.70;99.90;;;;;;5017112;28;20421;-45
2023/08/29 00:53:06;;;;;;;6.70;4.50;;;18.70;99.90;;;;;;5016555;28;20439;-43
2023/08/29 00:55:35;;;;;;;6.50;5.10;;;18.70;99.90;;;;;;5015730;28;20546;-42
2023/08/29 00:58:02;;;;;;;8.73;4.77;;;18.70;99.90;;;;;;5015046;28;20451;-43
2023/08/29 01:00:30;;;;;;;7.13;4.60;;;18.60;99.90;;;;;;5016798;28;20450;-42
2023/08/29 01:02:58;;;;;;;6.30;4.30;;;18.60;99.90;;;;;;5017869;28;20443;-41
2023/08/29 01:05:24;;;;;;;5.77;4.33;;;18.60;99.90;;;;;;5017009;28;20565;-43
2023/08/29 01:07:53;;;;;;;4.70;4.30;;;18.50;99.90;;;;;;5022889;28;20481;-43
2023/08/29 01:10:27;;;;;;;7.50;4.03;;;18.50;99.90;;;;;;5025552;28;20491;-43
2023/08/29 01:13:02;;;;;;;5.40;4.33;;;18.50;99.90;;;;;;5020495;28;20448;-43
2023/08/29 01:15:31;;;;;;;8.67;4.20;;;18.40;99.90;;;;;;5014279;28;20969;-42
2023/08/29 01:18:02;;;;;;;7.23;4.30;;;18.40;99.90;;;;;;5018261;28;20443;-42
2023/08/29 01:20:31;;;;;;;7.30;4.23;;;18.40;99.90;;;;;;5018289;28;20450;-42
2023/08/29 01:23:08;;;;;;;6.73;5.00;;;18.40;99.90;;;;;;5016664;28;20438;-42
2023/08/29 01:25:41;;;;;;;4.37;3.97;;;18.40;99.90;;;;;;5030555;28;20530;-42
2023/08/29 01:28:10;;;;;;;3.83;3.53;;;18.50;99.90;;;;;;5030330;28;20482;-45
2023/08/29 01:30:38;;;;;;;5.67;3.67;;;18.60;99.90;;;;;;5014076;28;20984;-44
2023/08/29 01:33:07;;;;;;;4.47;3.70;;;18.50;99.90;;;;;;5030067;28;20444;-43
2023/08/29 01:35:34;;;;;;;5.30;4.10;;;18.30;99.90;;;;;;5014839;28;20442;-43
2023/08/29 01:38:00;;;;;;;7.43;3.60;;;18.30;99.90;;;;;;5013295;28;20430;-44
2023/08/29 01:40:27;;;;;;;4.97;4.47;;;18.30;99.90;;;;;;5015382;28;20425;-43
2023/08/29 01:42:53;;;;;;;6.77;3.60;;;18.30;99.90;;;;;;5013843;28;20448;-42
2023/08/29 01:45:21;;;;;;;4.20;3.50;;;18.40;99.90;;;;;;5014459;28;20467;-43
2023/08/29 01:47:48;;;;;;;5.33;3.97;;;18.30;99.90;;;;;;5014489;28;20443;-41
2023/08/29 01:50:17;;;;;;;11.77;3.80;;;18.20;99.90;;;;;;5014702;28;20439;-45
2023/08/29 01:52:43;;;;;;;7.27;3.73;;;18.20;99.90;;;;;;5013570;28;20455;-43
2023/08/29 01:55:10;;;;;;;7.33;3.50;;;18.20;99.90;;;;;;5014298;28;20467;-42
2023/08/29 01:57:39;;;;;;;4.50;4.10;;;18.20;99.90;;;;;;5013338;28;20448;-45
2023/08/29 02:00:07;;;;;;;5.53;3.73;;;18.00;99.90;;;;;;5013309;28;20443;-42
2023/08/29 02:02:42;;;;;;;3.23;2.93;;;18.00;99.90;;;;;;5016005;28;20427;-42
2023/08/29 02:05:09;;;;;;;5.23;3.80;;;17.70;99.90;;;;;;5016752;28;20471;-43
2023/08/29 02:07:36;;;;;;;8.47;3.47;;;17.90;99.90;;;;;;5017360;28;20410;-43
2023/08/29 02:10:03;;;;;;;3.83;3.47;;;18.10;99.90;;;;;;5016006;28;20571;-42
2023/08/29 02:12:29;;;;;;;5.10;3.50;;;17.80;99.90;;;;;;5014810;28;20446;-44
2023/08/29 02:14:56;;;;;;;4.20;3.57;;;17.80;99.90;;;;;;5013043;28;20810;-43
2023/08/29 02:17:23;;;;;;;4.90;3.53;;;17.70;99.90;;;;;;5013386;28;20829;-42
2023/08/29 02:19:51;;;;;;;4.30;3.30;;;17.70;99.90;;;;;;5013265;28;20426;-44
2023/08/29 02:22:17;;;;;;;3.90;2.93;;;17.60;99.90;;;;;;5013269;28;20454;-44
2023/08/29 02:24:47;;;;;;;4.30;3.10;;;17.60;99.90;;;;;;5013301;28;20920;-43
2023/08/29 02:27:14;;;;;;;7.40;4.07;;;17.60;99.90;;;;;;5014755;28;20466;-44
2023/08/29 02:29:41;;;;;;;5.90;3.37;;;17.60;99.90;;;;;;5030305;28;20477;-42
2023/08/29 02:32:08;;;;;;;6.03;3.03;;;17.80;99.90;;;;;;5013474;28;20450;-43
2023/08/29 02:34:35;;;;;;;3.37;2.70;;;17.50;99.90;;;;;;5029697;28;21069;-43
2023/08/29 02:37:04;;;;;;;5.07;2.90;;;17.50;99.90;;;;;;5013492;28;20442;-43
2023/08/29 02:39:31;;;;;;;4.97;2.90;;;17.50;99.90;;;;;;5015333;28;20446;-43
2023/08/29 02:41:58;;;;;;;3.27;2.77;;;17.40;99.90;;;;;;5013914;28;20888;-45
2023/08/29 02:44:27;;;;;;;3.80;2.90;;;17.40;99.90;;;;;;5014477;28;20483;-43
2023/08/29 02:46:53;;;;;;;4.80;3.17;;;17.40;99.90;;;;;;5018479;28;20526;-43
2023/08/29 02:49:20;;;;;;;5.70;3.00;;;17.40;99.90;;;;;;5018304;28;20486;-42
2023/08/29 02:51:46;;;;;;;3.63;2.70;;;17.10;99.90;;;;;;5014747;28;20442;-43
2023/08/29 02:54:14;;;;;;;4.23;2.63;;;17.40;99.90;;;;;;5014135;28;20459;-42
2023/08/29 02:56:41;;;;;;;3.43;2.87;;;17.40;99.90;;;;;;5012885;28;20964;-42
2023/08/29 02:59:07;;;;;;;4.73;2.53;;;17.30;99.90;;;;;;5015990;28;20442;-41
2023/08/29 03:01:34;;;;;;;5.17;2.90;;;17.20;99.90;;;;;;5014613;28;20451;-41
2023/08/29 03:04:01;;;;;;;4.70;2.90;;;17.30;99.90;;;;;;5014177;28;20821;-43
2023/08/29 03:06:27;;;;;;;5.10;3.00;;;17.30;99.90;;;;;;5017748;28;20512;-41
2023/08/29 03:08:55;;;;;;;4.43;2.53;;;17.30;99.90;;;;;;5019585;28;20473;-45
2023/08/29 03:11:22;;;;;;;6.20;2.57;;;17.50;99.90;;;;;;5024241;28;20482;-42
2023/08/29 03:13:49;;;;;;;4.33;2.60;;;17.30;99.90;;;;;;5022696;28;20487;-44
2023/08/29 03:16:17;;;;;;;3.73;2.67;;;17.10;99.90;;;;;;5038527;28;20445;-47
2023/08/29 03:18:45;;;;;;;3.77;2.60;;;17.50;99.90;;;;;;5022188;28;20462;-44
2023/08/29 03:21:12;;;;;;;4.37;2.63;;;17.30;99.90;;;;;;5022780;28;20451;-42
2023/08/29 03:23:39;;;;;;;3.20;2.10;;;17.20;99.90;;;;;;5020842;28;20466;-42
2023/08/29 03:26:06;;;;;;;2.70;2.33;;;17.20;99.90;;;;;;5023788;28;20434;-44
2023/08/29 03:28:35;;;;;;;4.33;2.70;;;17.20;99.90;;;;;;5021696;28;20462;-43
2023/08/29 03:31:10;;;;;;;4.73;2.33;;;17.20;99.90;;;;;;5020389;28;20454;-43
2023/08/29 03:33:37;;;;;;;2.70;2.20;;;17.10;99.90;;;;;;5017149;28;20619;-46
2023/08/29 03:36:04;;;;;;;3.20;2.13;;;17.10;99.90;;;;;;5016656;28;20454;-43
2023/08/29 03:38:31;;;;;;;4.33;2.40;;;17.10;99.90;;;;;;5034096;28;20416;-43
2023/08/29 03:40:58;;;;;;;3.07;2.03;;;16.70;99.90;;;;;;5021540;28;20442;-44
2023/08/29 03:43:27;;;;;;;2.40;2.10;;;17.10;99.90;;;;;;5021252;28;20482;-45
2023/08/29 03:45:59;;;;;;;3.73;2.60;;;16.80;99.90;;;;;;5031004;28;20424;-45
2023/08/29 03:48:25;;;;;;;2.80;2.20;;;17.00;99.90;;;;;;5012728;28;20438;-46
2023/08/29 03:50:52;;;;;;;3.07;2.40;;;17.00;99.90;;;;;;5011034;28;20451;-46
2023/08/29 03:53:19;;;;;;;3.57;2.60;;;17.00;99.90;;;;;;5012574;28;20439;-46
2023/08/29 03:55:47;;;;;;;4.47;2.70;;;17.00;99.90;;;;;;5011222;28;20437;-45
2023/08/29 03:58:13;;;;;;;3.80;2.90;;;17.00;99.90;;;;;;5010623;28;20489;-45
2023/08/29 04:00:41;;;;;;;3.90;2.80;;;16.90;99.90;;;;;;5010946;28;20495;-45
2023/08/29 04:03:09;;;;;;;3.70;2.50;;;16.90;99.90;;;;;;5011172;28;20442;-44
2023/08/29 04:05:36;;;;;;;2.93;2.40;;;16.70;99.90;;;;;;5011219;28;20448;-45
2023/08/29 04:08:04;;;;;;;3.10;2.10;;;17.00;99.90;;;;;;5014507;28;20445;-44
2023/08/29 04:10:36;;;;;;;5.30;2.20;;;16.90;99.90;;;;;;5017076;28;20896;-46
2023/08/29 04:13:03;;;;;;;3.30;1.97;;;16.90;99.90;;;;;;5016968;28;20470;-45
2023/08/29 04:15:30;;;;;;;4.83;2.47;;;16.90;99.90;;;;;;5031837;28;20451;-45
2023/08/29 04:17:57;;;;;;;5.93;2.53;;;16.90;99.90;;;;;;5016318;28;20438;-44
2023/08/29 04:20:25;;;;;;;4.00;2.10;;;16.90;99.90;;;;;;5014930;28;20457;-44
2023/08/29 04:22:52;;;;;;;2.40;2.20;;;16.90;99.90;;;;;;5015403;28;20444;-46
2023/08/29 04:25:19;;;;;;;3.60;2.73;;;16.90;99.90;;;;;;5017606;28;20460;-44
2023/08/29 04:27:46;;;;;;;2.80;2.53;;;16.80;99.90;;;;;;5019113;28;20460;-45
2023/08/29 04:30:13;;;;;;;5.50;2.13;;;16.60;99.90;;;;;;5018271;28;20485;-45
2023/08/29 04:32:40;;;;;;;7.83;2.97;;;16.80;99.90;;;;;;5018125;28;20525;-45
2023/08/29 04:35:08;;;;;;;5.13;2.37;;;16.70;99.90;;;;;;5016913;28;21022;-46
2023/08/29 04:37:36;;;;;;;4.20;2.87;;;16.70;99.90;;;;;;5019045;28;20429;-46
2023/08/29 04:40:06;;;;;;;2.80;2.60;;;16.50;99.90;;;;;;5018331;28;20446;-45
2023/08/29 04:42:33;;;;;;;4.67;2.40;;;16.70;99.90;;;;;;5033895;28;20765;-45
2023/08/29 04:45:02;;;;;;;2.93;2.37;;;16.70;99.90;;;;;;5018250;28;20467;-44
2023/08/29 04:47:28;;;;;;;2.97;2.20;;;16.80;99.90;;;;;;5016820;28;20445;-46
2023/08/29 04:49:55;;;;;;;4.13;2.50;;;16.70;99.90;;;;;;5030658;28;20494;-44
2023/08/29 04:52:22;;;;;;;4.10;2.50;;;16.80;99.90;;;;;;5015984;28;20438;-45
2023/08/29 04:54:50;;;;;;;5.70;2.47;;;16.80;99.90;;;;;;5015520;28;20461;-45
2023/08/29 04:57:16;;;;;;;3.13;2.77;;;16.70;99.90;;;;;;5013769;28;20453;-45
2023/08/29 04:59:43;;;;;;;3.00;2.20;;;16.80;99.90;;;;;;5013857;28;20450;-45
2023/08/29 05:02:10;;;;;;;6.30;2.90;;;16.80;99.90;;;;;;5014254;28;20860;-45
2023/08/29 05:04:36;;;;;;;4.73;2.30;;;16.50;99.90;;;;;;5015387;28;20457;-45
2023/08/29 05:07:04;;;;;;;5.80;2.60;;;16.70;99.90;;;;;;5030759;28;20831;-46
2023/08/29 05:09:31;;;;;;;2.87;2.50;;;16.70;99.90;;;;;;5030864;28;20773;-44
2023/08/29 05:11:59;;;;;;;4.40;2.90;;;16.40;99.90;;;;;;5014028;28;20451;-45
2023/08/29 05:14:26;;;;;;;2.90;2.40;;;16.80;99.90;;;;;;5013781;28;20472;-44
2023/08/29 05:16:53;;;;;;;3.37;2.57;;;16.70;99.90;;;;;;5013779;28;21053;-45
2023/08/29 05:19:19;;;;;;;4.80;3.00;;;16.70;99.90;;;;;;5014474;28;20976;-45
2023/08/29 05:21:46;;;;;;;8.93;2.80;;;16.70;99.90;;;;;;5014115;28;20820;-45
2023/08/29 05:24:13;;;;;;;2.77;2.43;;;16.80;99.90;;;;;;5014885;28;20656;-46
2023/08/29 05:26:39;;;;;;;4.63;2.90;;;16.80;99.90;;;;;;5030526;28;20456;-45
2023/08/29 05:29:07;;;;;;;4.30;3.20;;;16.90;99.90;;;;;;5014833;28;20465;-46
2023/08/29 05:31:34;;;;;;;5.50;3.27;;;16.90;99.90;;;;;;5015080;28;20497;-45
2023/08/29 05:34:01;;;;;;;6.87;3.50;;;17.00;99.90;;;;;;5013437;28;20813;-44
2023/08/29 05:36:27;;;;;;;5.07;3.47;;;17.00;99.90;;;;;;5014702;28;20456;-44
2023/08/29 05:38:54;;;;;;;6.30;3.63;;;16.70;99.90;;;;;;5013188;28;21017;-45
2023/08/29 05:41:20;;;;;;;6.57;3.97;;;17.10;99.90;;;;;;5014928;28;20445;-44
2023/08/29 05:43:47;;;;;;;5.87;4.40;;;17.40;99.90;;;;;;5014224;28;20505;-45
2023/08/29 05:46:15;;;;;;;4.70;3.30;;;17.20;99.90;;;;;;5014765;28;20427;-45
2023/08/29 05:48:41;;;;;;;4.40;3.50;;;17.20;99.90;;;;;;5014696;28;20431;-45
2023/08/29 05:51:08;;;;;;;5.40;3.43;;;16.90;99.90;;;;;;5014281;28;20844;-46
2023/08/29 05:53:35;;;;;;;9.63;4.40;;;17.20;99.90;;;;;;5014484;28;20480;-45
2023/08/29 05:56:01;;;;;;;5.67;4.40;;;17.40;99.90;;;;;;5014481;28;20443;-47
2023/08/29 05:58:28;;;;;;;5.33;3.73;;;14.40;99.90;;;;;;5014029;28;20440;-45
2023/08/29 06:00:55;;;;;;;6.80;4.30;;;17.20;99.90;;;;;;5014878;28;20435;-46
2023/08/29 06:03:23;;;;;;;4.57;3.87;;;17.30;99.90;;;;;;5014348;28;20525;-46
2023/08/29 06:05:49;;;;;;;4.80;3.90;;;17.20;99.90;;;;;;5014459;28;20445;-45
2023/08/29 06:08:17;;;;;;;7.83;3.67;;;17.20;99.90;;;;;;5014393;28;20765;-45
2023/08/29 06:10:44;;;;;;;4.47;3.93;;;14.80;99.90;;;;;;5013906;28;21037;-45
2023/08/29 06:13:10;;;;;;;5.20;4.40;;;17.20;99.90;;;;;;5014432;28;20450;-46
2023/08/29 06:15:37;;;;;;;7.63;4.30;;;17.20;99.90;;;;;;5016190;28;20486;-46
2023/08/29 06:18:04;;;;;;;6.43;4.10;;;17.30;99.90;;;;;;5016613;28;20437;-45
2023/08/29 06:20:32;;;;;;;5.00;4.10;;;17.20;99.90;;;;;;5016837;28;20847;-45
2023/08/29 06:22:59;;;;;;;4.13;3.73;;;17.30;99.90;;;;;;5014794;28;20528;-46
2023/08/29 06:25:27;;;;;;;7.00;4.10;;;17.30;99.90;;;;;;5014533;28;20438;-46
2023/08/29 06:27:54;;;;;;;4.23;3.83;;;17.40;99.90;;;;;;5015743;28;20480;-44
2023/08/29 06:30:21;;;;;;;5.17;4.40;;;17.40;99.90;;;;;;5030376;28;20504;-44
2023/08/29 06:32:47;;;;;;;10.03;5.20;;;17.40;99.90;;;;;;5013179;28;20896;-45
2023/08/29 06:35:14;;;;;;;5.57;4.40;;;17.50;99.90;;;;;;5014040;28;20787;-47
2023/08/29 06:37:42;;;;;;;7.50;3.90;;;17.60;99.90;;;;;;5012186;28;20497;-47
2023/08/29 06:40:10;;;;;;;5.73;4.20;;;17.80;99.90;;;;;;5013764;28;20417;-45
2023/08/29 06:42:37;;;;;;;6.40;3.57;;;17.90;99.90;;;;;;5014408;28;20447;-45
2023/08/29 06:45:05;;;;;;;4.00;3.53;;;17.90;99.90;;;;;;5013359;28;20554;-46
2023/08/29 06:47:32;;;;;;;4.50;3.03;;;18.00;99.90;;;;;;5012951;28;20409;-45
2023/08/29 06:49:58;;;;;;;4.37;3.97;;;18.00;99.90;;;;;;5013131;28;20976;-46
2023/08/29 06:52:27;;;;;;;9.03;5.00;;;18.00;99.90;;;;;;5012779;28;20712;-46
2023/08/29 06:54:55;;;;;;;13.27;4.30;;;18.00;99.90;;;;;;5013705;28;20969;-46
2023/08/29 06:57:21;;;;;;;4.40;4.00;;;17.90;99.90;;;;;;5011746;28;20426;-47
2023/08/29 06:59:48;;;;;;;5.80;4.47;;;17.90;99.90;;;;;;5013668;28;20423;-45
2023/08/29 07:02:15;;;;;;;6.10;3.93;;;18.00;99.90;;;;;;5014043;28;20435;-44
2023/08/29 07:04:41;;;;;;;5.73;4.23;;;17.90;99.90;;;;;;5013943;28;20464;-46
2023/08/29 07:07:08;;;;;;;5.57;3.40;;;17.90;99.90;;;;;;5013275;28;20431;-44
2023/08/29 07:09:35;;;;;;;6.30;4.00;;;17.30;99.90;;;;;;5013501;28;20982;-44
2023/08/29 07:12:04;;;;;;;7.17;3.60;;;18.00;99.90;;;;;;5013475;28;20444;-45
2023/08/29 07:14:31;;;;;;;4.20;3.80;;;18.00;99.90;;;;;;5013592;28;20489;-44
2023/08/29 07:16:57;;;;;;;4.50;4.10;;;18.00;99.90;;;;;;5013640;28;20471;-45
2023/08/29 07:19:24;;;;;;;8.30;5.20;;;18.00;99.90;;;;;;5013528;28;20462;-46
2023/08/29 07:21:51;;;;;;;6.20;3.97;;;18.10;99.90;;;;;;5013490;28;20538;-46
2023/08/29 07:24:18;;;;;;;7.03;4.47;;;18.10;99.90;;;;;;5012659;28;20428;-46
2023/08/29 07:26:44;;;;;;;5.40;4.73;;;18.10;99.90;;;;;;5012921;28;20447;-46
2023/08/29 07:29:12;;;;;;;5.10;3.90;;;18.10;99.90;;;;;;5013528;28;20440;-44
2023/08/29 07:31:39;;;;;;;7.23;5.10;;;18.20;99.90;;;;;;5011917;28;20483;-46
2023/08/29 07:34:05;;;;;;;5.80;5.23;;;18.20;99.90;;;;;;5020191;28;20971;-43
2023/08/29 07:36:32;;;;;;;7.83;4.17;;;18.20;99.90;;;;;;5015271;28;20442;-43
2023/08/29 07:38:59;;;;;;;8.93;4.30;;;18.10;99.90;;;;;;5014218;28;20546;-43
2023/08/29 07:41:25;;;;;;;8.00;4.90;;;18.10;99.90;;;;;;5013961;28;20446;-44
2023/08/29 07:43:52;;;;;;;11.03;5.57;;;18.00;99.90;;;;;;5013727;28;20450;-43
2023/08/29 07:46:20;;;;;;;5.37;4.87;;;17.90;99.90;;;;;;5013693;28;20885;-44
2023/08/29 07:48:46;;;;;;;7.27;5.33;;;17.90;99.90;;;;;;5014810;28;20936;-44
2023/08/29 07:51:13;;;;;;;10.73;5.20;;;18.10;99.90;;;;;;5014298;28;20490;-43
2023/08/29 07:53:40;;;;;;;8.23;5.27;;;18.20;99.90;;;;;;5014699;28;20459;-47
2023/08/29 07:56:06;;;;;;;8.90;6.00;;;17.80;99.90;;;;;;5014733;28;20926;-44
2023/08/29 07:58:33;;;;;;;8.30;5.90;;;17.80;99.90;;;;;;5014021;28;20439;-44
2023/08/29 08:01:01;;;;;;;6.33;5.50;;;17.70;99.90;;;;;;5014471;28;20409;-45
2023/08/29 08:03:29;;;;;;;10.60;6.13;;;17.70;99.90;;;;;;5014419;28;20454;-43
2023/08/29 08:05:56;;;;;;;6.73;5.30;;;17.70;99.90;;;;;;5014644;28;20413;-43
2023/08/29 08:08:23;;;;;;;7.53;5.80;;;17.70;99.90;;;;;;5014282;28;20506;-43
2023/08/29 08:10:49;;;;;;;7.20;6.50;;;17.70;99.90;;;;;;5014069;28;20450;-43
2023/08/29 08:13:16;;;;;;;6.00;5.40;;;17.70;99.90;;;;;;5013235;28;20440;-45
2023/08/29 08:15:42;;;;;;;6.90;5.20;;;18.00;99.90;;;;;;5014682;28;20517;-42
2023/08/29 08:18:09;;;;;;;7.97;5.73;;;17.90;99.90;;;;;;5013877;28;20414;-42
2023/08/29 08:20:37;;;;;;;7.53;6.87;;;17.90;99.90;;;;;;5013580;28;20807;-41
2023/08/29 08:23:04;;;;;;;7.10;5.47;;;18.00;99.90;;;;;;5012882;28;20462;-42
2023/08/29 08:25:31;;;;;;;5.70;5.20;;;18.10;99.90;;;;;;5013603;28;20474;-42
2023/08/29 08:27:58;;;;;;;6.03;5.47;;;18.10;99.90;;;;;;5013765;28;20425;-43
2023/08/29 08:30:24;;;;;;;7.50;6.73;;;18.00;99.90;;;;;;5013857;28;20481;-45
2023/08/29 08:32:51;;;;;;;5.70;5.20;;;18.00;99.90;;;;;;5014785;28;20435;-44
2023/08/29 08:35:18;;;;;;;6.80;5.27;;;18.00;99.90;;;;;;5013653;28;20432;-43
2023/08/29 08:37:45;;;;;;;5.83;5.30;;;18.10;99.90;;;;;;5028950;28;20456;-42
2023/08/29 08:40:15;;;;;;;7.40;6.57;;;17.90;99.90;;;;;;5013638;28;20443;-43
2023/08/29 08:42:44;;;;;;;6.07;5.30;;;18.20;99.90;;;;;;5013808;28;20442;-43
2023/08/29 08:45:11;;;;;;;5.57;4.97;;;18.20;99.90;;;;;;5014131;28;20446;-42
2023/08/29 08:47:38;;;;;;;7.33;6.63;;;18.20;99.90;;;;;;5011243;28;20446;-44
2023/08/29 08:50:08;;;;;;;8.10;5.17;;;18.30;99.90;;;;;;5013438;28;20440;-43
2023/08/29 08:52:35;;;;;;;6.10;5.20;;;18.30;99.90;;;;;;5013142;28;20595;-42
2023/08/29 08:55:03;;;;;;;5.00;4.30;;;18.30;99.90;;;;;;5015889;28;20528;-43
2023/08/29 08:57:30;;;;;;;6.00;4.77;;;18.30;99.90;;;;;;5016451;28;20406;-42
2023/08/29 08:59:57;;;;;;;10.40;5.30;;;18.40;99.90;;;;;;5017218;28;20444;-46
2023/08/29 09:02:25;;;;;;;5.80;4.80;;;18.50;99.90;;;;;;5017056;28;20429;-42
2023/08/29 09:04:51;;;;;;;5.03;4.50;;;18.70;99.90;;;;;;5016692;28;20457;-43
2023/08/29 09:07:18;;;;;;;6.20;4.73;;;18.80;99.90;;;;;;5016389;28;20432;-43
2023/08/29 09:10:09;;;;;;;4.90;4.43;;;18.90;99.90;;;;;;5016511;28;20440;-42
2023/08/29 09:12:36;;;;;;;4.50;3.10;;;19.00;99.90;;;;;;5016167;28;20424;-43
2023/08/29 09:15:04;;;;;;;6.60;3.63;;;18.80;99.90;;;;;;5016762;28;20464;-41
2023/08/29 09:17:30;;;;;;;4.00;3.10;;;19.20;99.90;;;;;;5031593;28;20524;-43
2023/08/29 09:19:58;;;;;;;4.30;3.57;;;19.30;99.90;;;;;;5016844;28;20440;-43
2023/08/29 09:22:25;;;;;;;4.17;3.30;;;19.00;99.90;;;;;;5016303;28;20468;-44
2023/08/29 09:24:52;;;;;;;3.80;3.50;;;19.10;99.90;;;;;;5016013;28;20435;-45
2023/08/29 09:27:20;;;;;;;3.37;2.70;;;19.10;99.90;;;;;;5023200;28;20434;-46
2023/08/29 09:29:46;;;;;;;2.73;2.53;;;18.80;99.90;;;;;;5016397;28;20983;-47
2023/08/29 09:32:14;;;;;;;3.07;2.83;;;19.10;99.90;;;;;;5014831;28;20479;-46
2023/08/29 09:34:41;;;;;;;3.53;3.10;;;19.20;99.90;;;;;;5015116;28;20460;-44
2023/08/29 09:37:07;;;;;;;3.37;3.07;;;19.20;99.90;;;;;;5014807;28;20532;-47
2023/08/29 09:39:35;;;;;;;3.23;2.93;;;19.50;99.90;;;;;;5015948;28;20437;-45
2023/08/29 09:42:04;;;;;;;3.27;2.67;;;19.50;99.90;;;;;;5014879;28;21139;-45
2023/08/29 09:44:36;;;;;;;3.27;2.97;;;19.40;99.90;;;;;;5016333;28;20442;-44
2023/08/29 09:47:03;;;;;;;3.60;3.00;;;19.10;99.90;;;;;;5015055;28;20468;-44
2023/08/29 09:49:32;;;;;;;2.70;2.50;;;19.30;99.90;;;;;;5014716;28;20435;-46
2023/08/29 09:52:02;;;;;;;3.30;3.00;;;19.10;99.90;;;;;;5014171;28;20487;-46
2023/08/29 09:54:30;;;;;;;3.10;2.80;;;19.10;99.90;;;;;;5014432;28;20457;-45
2023/08/29 09:57:00;;;;;;;3.63;3.20;;;19.40;99.90;;;;;;5013925;28;20419;-47
2023/08/29 09:59:28;;;;;;;3.17;2.87;;;19.50;99.90;;;;;;5014856;28;20813;-45
2023/08/29 10:01:56;;;;;;;7.20;3.43;;;19.40;99.90;;;;;;5014196;28;20433;-44
2023/08/29 10:04:24;;;;;;;3.87;2.90;;;19.60;99.90;;;;;;5014167;28;20464;-44
2023/08/29 10:06:53;;;;;;;5.20;3.10;;;19.70;99.90;;;;;;5013403;28;20434;-47
2023/08/29 10:09:20;;;;;;;3.67;3.30;;;19.70;99.90;;;;;;5014460;28;20789;-46
2023/08/29 10:11:47;;;;;;;3.50;2.70;;;19.50;99.90;;;;;;5014215;28;20867;-46
2023/08/29 10:14:14;;;;;;;2.70;2.50;;;19.40;99.90;;;;;;5014636;28;20463;-45
2023/08/29 10:16:42;;;;;;;3.53;3.10;;;19.30;99.90;;;;;;5013582;28;20444;-45
2023/08/29 10:19:12;;;;;;;4.60;3.40;;;19.30;99.90;;;;;;5014042;28;20488;-46
2023/08/29 10:21:41;;;;;;;5.30;3.47;;;19.40;99.90;;;;;;5012606;28;20446;-46
2023/08/29 10:24:08;;;;;;;4.50;3.70;;;19.40;99.90;;;;;;5014083;28;20455;-45
2023/08/29 10:26:37;;;;;;;4.50;3.03;;;19.40;99.90;;;;;;5013937;28;20437;-44
2023/08/29 10:29:05;;;;;;;4.70;3.50;;;19.40;99.90;;;;;;5013847;28;20441;-44
2023/08/29 10:31:32;;;;;;;3.63;3.27;;;19.40;99.90;;;;;;5013968;28;20536;-46
2023/08/29 10:34:01;;;;;;;3.33;3.03;;;19.50;99.90;;;;;;5013599;28;20456;-46
2023/08/29 10:36:30;;;;;;;4.03;3.63;;;19.50;99.90;;;;;;5016655;28;20476;-44
2023/08/29 10:38:57;;;;;;;4.50;3.40;;;19.60;99.90;;;;;;5013632;28;20927;-45
2023/08/29 10:41:24;;;;;;;7.00;4.50;;;19.30;99.90;;;;;;5013746;28;20429;-46
2023/08/29 10:43:53;;;;;;;5.20;3.90;;;19.20;99.90;;;;;;5012481;28;20588;-47
2023/08/29 10:46:20;;;;;;;4.97;3.93;;;19.10;99.90;;;;;;5014025;28;20459;-46
2023/08/29 10:48:52;;;;;;;5.03;3.70;;;19.30;99.90;;;;;;5013258;28;20514;-46
2023/08/29 10:51:24;;;;;;;5.00;4.37;;;19.30;99.90;;;;;;5012859;28;20832;-46
2023/08/29 10:53:54;;;;;;;5.30;4.50;;;19.20;99.90;;;;;;5013451;28;20957;-47
2023/08/29 10:56:24;;;;;;;5.60;4.97;;;19.30;99.90;;;;;;5013476;28;20563;-46
2023/08/29 10:58:51;;;;;;;5.10;4.60;;;19.30;99.90;;;;;;5012542;28;20937;-45
2023/08/29 11:01:31;;;;;;;5.67;5.00;;;19.30;99.90;;;;;;5012884;28;20463;-45
2023/08/29 11:03:59;;;;;;;5.40;4.90;;;19.40;99.90;;;;;;5013396;28;20456;-45
2023/08/29 11:06:27;;;;;;;6.27;5.67;;;19.40;99.90;;;;;;5012814;28;20436;-45
2023/08/29 11:09:20;;;;;;;5.80;4.80;;;19.40;99.90;;;;;;5012760;28;20436;-46
2023/08/29 11:12:05;;;;;;;5.10;4.53;;;19.50;99.90;;;;;;5013270;28;20492;-46
2023/08/29 11:14:51;;;;;;;6.30;5.20;;;19.50;99.90;;;;;;5013532;28;20467;-46
2023/08/29 11:17:22;;;;;;;5.70;5.20;;;19.60;99.90;;;;;;5012925;28;20448;-45
2023/08/29 11:19:52;;;;;;;6.00;5.50;;;19.70;99.90;;;;;;5012732;28;20466;-45
2023/08/29 11:22:22;;;;;;;6.13;5.40;;;19.70;99.90;;;;;;5012821;28;20447;-45
2023/08/29 11:24:54;;;;;;;6.20;5.60;;;19.60;99.90;;;;;;5012931;28;20460;-45
2023/08/29 11:27:21;;;;;;;5.73;5.23;;;19.60;99.90;;;;;;5012280;28;20553;-46
2023/08/29 11:29:48;;;;;;;6.33;5.83;;;19.50;99.90;;;;;;5013434;28;20436;-46
2023/08/29 11:32:16;;;;;;;6.77;5.20;;;19.50;99.90;;;;;;5012615;28;20467;-44
2023/08/29 11:34:42;;;;;;;5.87;5.20;;;19.60;99.90;;;;;;5012780;28;20454;-46
2023/08/29 11:37:09;;;;;;;6.00;5.50;;;19.70;99.90;;;;;;5012756;28;20910;-46
2023/08/29 11:39:36;;;;;;;6.90;5.90;;;19.80;99.90;;;;;;5012873;28;20441;-47
2023/08/29 11:42:04;;;;;;;5.60;5.10;;;19.70;99.90;;;;;;5011194;28;20938;-45
2023/08/29 11:44:33;;;;;;;6.33;5.37;;;19.70;99.90;;;;;;5027544;28;20508;-44
2023/08/29 11:47:00;;;;;;;6.47;5.03;;;19.90;99.90;;;;;;5012761;28;20446;-44
2023/08/29 11:49:27;;;;;;;6.00;4.90;;;20.00;99.90;;;;;;5013081;28;20434;-44
2023/08/29 11:51:54;;;;;;;6.63;6.03;;;20.00;99.90;;;;;;5013277;28;20483;-46
2023/08/29 11:54:41;;;;;;;6.50;5.90;;;20.00;99.90;;;;;;5013165;28;20457;-45
2023/08/29 11:57:11;;;;;;;5.77;5.27;;;19.80;99.90;;;;;;5012461;28;20438;-45
2023/08/29 11:59:40;;;;;;;6.67;6.00;;;20.00;99.90;;;;;;5012591;28;20429;-46
2023/08/29 12:02:09;;;;;;;5.90;5.23;;;20.00;99.90;;;;;;5012683;28;20434;-45
2023/08/29 12:04:39;;;;;;;6.30;5.70;;;20.00;99.90;;;;;;5012285;28;20473;-46
2023/08/29 12:07:08;;;;;;;6.70;6.20;;;19.90;99.90;;;;;;5012005;28;20511;-45
2023/08/29 12:09:35;;;;;;;10.03;7.47;;;20.10;99.90;;;;;;5012646;28;20415;-46
2023/08/29 12:12:02;;;;;;;6.37;5.50;;;20.10;99.90;;;;;;5012481;28;20493;-44
2023/08/29 12:14:30;;;;;;;6.70;6.20;;;20.00;99.90;;;;;;5012226;28;20482;-46
2023/08/29 12:16:57;;;;;;;6.87;6.17;;;20.10;99.90;;;;;;5012343;28;20439;-46
2023/08/29 12:19:24;;;;;;;9.20;5.80;;;20.20;99.90;;;;;;5011109;28;20450;-46
2023/08/29 12:21:54;;;;;;;6.53;5.80;;;19.90;99.90;;;;;;5012510;28;20545;-46
2023/08/29 12:24:21;;;;;;;6.67;6.07;;;20.00;99.90;;;;;;5012302;28;20464;-45
2023/08/29 12:26:48;;;;;;;5.53;5.13;;;20.00;99.90;;;;;;5012384;28;20412;-46
2023/08/29 12:29:15;;;;;;;8.33;7.63;;;20.00;99.90;;;;;;5012816;28;20966;-45
2023/08/29 12:31:43;;;;;;;6.13;5.53;;;20.10;99.90;;;;;;5016040;28;20585;-45
2023/08/29 12:34:09;;;;;;;5.57;5.17;;;20.30;99.90;;;;;;5015119;28;20470;-46
2023/08/29 12:36:36;;;;;;;5.90;5.40;;;20.20;99.90;;;;;;5015840;28;20529;-46
2023/08/29 12:39:03;;;;;;;7.43;6.73;;;20.10;99.90;;;;;;5015800;28;20405;-46
2023/08/29 12:41:30;;;;;;;6.40;5.80;;;20.10;99.90;;;;;;5015723;28;20446;-45
2023/08/29 12:43:59;;;;;;;7.87;7.17;;;20.00;99.90;;;;;;5015494;28;20582;-46
2023/08/29 12:46:25;;;;;;;7.43;5.90;;;20.30;99.90;;;;;;5015713;28;20422;-46
2023/08/29 12:48:53;;;;;;;5.53;5.03;;;20.00;99.90;;;;;;5015389;28;20806;-45